메인 페이지
METAR-TAF:

METAR-TAF

공항 :

그란카나리아 섬, 스페인

위도: 27-56N, 경도: 015-23W, 고도: 23m

현재 날씨관측

예보는 28분 전, 02:30시(UTC)에 발표되었습니다.
16kt
온도 18°C
습도 68%
기압 1020 hPa
시정 10km 이상
고도 3500ft 상공 구름 많음

METAR: GCLP 190230Z 01016KT 9999 BKN035 18/12 Q1020 NOSIG

시각: 02:58 (02:58 UTC)

예보

예보는 58분 전, 02:00시(UTC)에 발표되었습니다.
예보 대상 시간: 19일 03시부터 20일 03시까지 (UTC)
20kt
시정 10km 이상
고도 3500ft 상공 구름 많음

TAF: GCLP 190200Z 1903/2003 01020KT 9999 BKN035 TX22/1914Z TN16/1906Z

4,000개 이상의 공항 관측 자료 및 예보 (METAR 및 TAF 보고).

지도상에서 검색 가능한 기상관측소가 노란 점과 빨간 점으로 표시되어 있습니다.

기상관측소 명을 보려면 표시 위로 마우스를 이동하세요.

날씨 관측과 예보를 보려면 클릭하세요.

지도 변경 : 확대하려면 엑스 표시가 있는 녹색 버튼, 축소하려면 빼기 표시가 있는 녹색 버튼, 다음 페이지의 지도를 보려면 녹색 화살표를 클릭하세요.


METAR-TAF: